sensor_id;sensor_type;location;lat;lon;timestamp;temperature;humidity
25342;DHT22;13298;48.792;9.154;2023-03-01T00:01:53;-2.20;99.90
25342;DHT22;13298;48.792;9.154;2023-03-01T00:04:18;-2.30;99.90
25342;DHT22;13298;48.792;9.154;2023-03-01T00:06:44;-2.30;99.90
25342;DHT22;13298;48.792;9.154;2023-03-01T00:09:12;-2.30;99.90
25342;DHT22;13298;48.792;9.154;2023-03-01T00:11:39;-2.30;99.90
25342;DHT22;13298;48.792;9.154;2023-03-01T00:14:04;-2.30;99.90
25342;DHT22;13298;48.792;9.154;2023-03-01T00:16:34;-2.30;99.90
25342;DHT22;13298;48.792;9.154;2023-03-01T00:19:05;-2.30;99.90
25342;DHT22;13298;48.792;9.154;2023-03-01T00:21:31;-2.40;99.90
25342;DHT22;13298;48.792;9.154;2023-03-01T00:23:57;-2.40;99.90
25342;DHT22;13298;48.792;9.154;2023-03-01T00:26:24;-2.30;99.90
25342;DHT22;13298;48.792;9.154;2023-03-01T00:28:51;-2.30;99.90
25342;DHT22;13298;48.792;9.154;2023-03-01T00:31:20;-2.30;99.90
25342;DHT22;13298;48.792;9.154;2023-03-01T00:33:47;-2.30;99.90
25342;DHT22;13298;48.792;9.154;2023-03-01T00:36:14;-2.30;99.90
25342;DHT22;13298;48.792;9.154;2023-03-01T00:38:45;-2.40;99.90
25342;DHT22;13298;48.792;9.154;2023-03-01T00:41:13;-2.40;99.90
25342;DHT22;13298;48.792;9.154;2023-03-01T00:43:39;-2.40;99.90
25342;DHT22;13298;48.792;9.154;2023-03-01T00:46:08;-2.40;99.90
25342;DHT22;13298;48.792;9.154;2023-03-01T00:48:39;-2.40;99.90
25342;DHT22;13298;48.792;9.154;2023-03-01T00:51:14;-2.40;99.90
25342;DHT22;13298;48.792;9.154;2023-03-01T00:53:45;-2.40;99.90
25342;DHT22;13298;48.792;9.154;2023-03-01T00:56:13;-2.40;99.90
25342;DHT22;13298;48.792;9.154;2023-03-01T00:58:40;-2.40;99.90
25342;DHT22;13298;48.792;9.154;2023-03-01T01:01:10;-2.40;99.90
25342;DHT22;13298;48.792;9.154;2023-03-01T01:03:44;-2.50;99.90
25342;DHT22;13298;48.792;9.154;2023-03-01T01:06:19;-2.50;99.90
25342;DHT22;13298;48.792;9.154;2023-03-01T01:08:48;-2.50;99.90
25342;DHT22;13298;48.792;9.154;2023-03-01T01:11:14;-2.50;99.90
25342;DHT22;13298;48.792;9.154;2023-03-01T01:13:40;-2.50;99.90
25342;DHT22;13298;48.792;9.154;2023-03-01T01:16:07;-2.50;99.90
25342;DHT22;13298;48.792;9.154;2023-03-01T01:18:33;-2.60;99.90
25342;DHT22;13298;48.792;9.154;2023-03-01T01:21:07;-2.70;99.90
25342;DHT22;13298;48.792;9.154;2023-03-01T01:23:34;-2.70;99.90
25342;DHT22;13298;48.792;9.154;2023-03-01T01:26:08;-2.70;99.90
25342;DHT22;13298;48.792;9.154;2023-03-01T01:28:35;-2.70;99.90
25342;DHT22;13298;48.792;9.154;2023-03-01T01:31:01;-2.60;99.90
25342;DHT22;13298;48.792;9.154;2023-03-01T01:33:27;-2.60;99.90
25342;DHT22;13298;48.792;9.154;2023-03-01T01:35:53;-2.60;99.90
25342;DHT22;13298;48.792;9.154;2023-03-01T01:38:19;-2.60;99.90
25342;DHT22;13298;48.792;9.154;2023-03-01T01:40:47;-2.70;99.90
25342;DHT22;13298;48.792;9.154;2023-03-01T01:43:20;-2.70;99.90
25342;DHT22;13298;48.792;9.154;2023-03-01T01:45:49;-2.80;99.90
25342;DHT22;13298;48.792;9.154;2023-03-01T01:48:20;-2.80;99.90
25342;DHT22;13298;48.792;9.154;2023-03-01T01:50:50;-2.90;99.90
25342;DHT22;13298;48.792;9.154;2023-03-01T01:53:24;-2.90;99.90
25342;DHT22;13298;48.792;9.154;2023-03-01T01:55:54;-2.90;99.90
25342;DHT22;13298;48.792;9.154;2023-03-01T01:58:26;-2.80;99.90
25342;DHT22;13298;48.792;9.154;2023-03-01T02:00:53;-2.70;99.90
25342;DHT22;13298;48.792;9.154;2023-03-01T02:03:25;-2.70;99.90
25342;DHT22;13298;48.792;9.154;2023-03-01T02:06:21;-2.60;99.90
25342;DHT22;13298;48.792;9.154;2023-03-01T02:09:07;-2.40;99.90
25342;DHT22;13298;48.792;9.154;2023-03-01T02:11:36;-2.20;99.90
25342;DHT22;13298;48.792;9.154;2023-03-01T02:14:03;-2.10;99.90
25342;DHT22;13298;48.792;9.154;2023-03-01T02:16:30;-2.00;99.90
25342;DHT22;13298;48.792;9.154;2023-03-01T02:18:56;-1.90;99.90
25342;DHT22;13298;48.792;9.154;2023-03-01T02:21:40;-1.80;99.90
25342;DHT22;13298;48.792;9.154;2023-03-01T02:27:06;-1.70;99.90
25342;DHT22;13298;48.792;9.154;2023-03-01T02:29:32;-1.60;99.90
25342;DHT22;13298;48.792;9.154;2023-03-01T02:32:00;-1.60;99.90
25342;DHT22;13298;48.792;9.154;2023-03-01T02:34:28;-1.60;99.90
25342;DHT22;13298;48.792;9.154;2023-03-01T02:37:02;-1.50;99.90
25342;DHT22;13298;48.792;9.154;2023-03-01T02:39:40;-1.50;99.90
25342;DHT22;13298;48.792;9.154;2023-03-01T02:42:11;-1.50;99.90
25342;DHT22;13298;48.792;9.154;2023-03-01T02:44:38;-1.40;99.90
25342;DHT22;13298;48.792;9.154;2023-03-01T02:47:04;-1.40;99.90
25342;DHT22;13298;48.792;9.154;2023-03-01T02:49:34;-1.40;99.90
25342;DHT22;13298;48.792;9.154;2023-03-01T02:55:03;-1.40;99.90
25342;DHT22;13298;48.792;9.154;2023-03-01T02:57:31;-1.40;99.90
25342;DHT22;13298;48.792;9.154;2023-03-01T03:00:03;-1.40;99.90
25342;DHT22;13298;48.792;9.154;2023-03-01T03:02:32;-1.40;99.90
25342;DHT22;13298;48.792;9.154;2023-03-01T03:05:11;-1.40;99.90
25342;DHT22;13298;48.792;9.154;2023-03-01T03:07:44;-1.40;99.90
25342;DHT22;13298;48.792;9.154;2023-03-01T03:10:17;-1.40;99.90
25342;DHT22;13298;48.792;9.154;2023-03-01T03:12:56;-1.40;99.90
25342;DHT22;13298;48.792;9.154;2023-03-01T03:15:23;-1.40;99.90
25342;DHT22;13298;48.792;9.154;2023-03-01T03:17:50;-1.40;99.90
25342;DHT22;13298;48.792;9.154;2023-03-01T03:20:19;-1.40;99.90
25342;DHT22;13298;48.792;9.154;2023-03-01T03:22:47;-1.40;99.90
25342;DHT22;13298;48.792;9.154;2023-03-01T03:25:14;-1.40;99.90
25342;DHT22;13298;48.792;9.154;2023-03-01T03:27:42;-1.40;99.90
25342;DHT22;13298;48.792;9.154;2023-03-01T03:30:11;-1.40;99.90
25342;DHT22;13298;48.792;9.154;2023-03-01T03:32:40;-1.30;99.90
25342;DHT22;13298;48.792;9.154;2023-03-01T03:35:08;-1.40;99.90
25342;DHT22;13298;48.792;9.154;2023-03-01T03:37:39;-1.30;99.90
25342;DHT22;13298;48.792;9.154;2023-03-01T03:40:24;-1.30;99.90
25342;DHT22;13298;48.792;9.154;2023-03-01T03:42:50;-1.30;99.90
25342;DHT22;13298;48.792;9.154;2023-03-01T03:45:16;-1.30;99.90
25342;DHT22;13298;48.792;9.154;2023-03-01T03:47:42;-1.40;99.90
25342;DHT22;13298;48.792;9.154;2023-03-01T03:50:15;-1.30;99.90
25342;DHT22;13298;48.792;9.154;2023-03-01T03:52:41;-1.30;99.90
25342;DHT22;13298;48.792;9.154;2023-03-01T03:55:09;-1.30;99.90
25342;DHT22;13298;48.792;9.154;2023-03-01T03:57:37;-1.30;99.90
25342;DHT22;13298;48.792;9.154;2023-03-01T04:00:10;-1.30;99.90
25342;DHT22;13298;48.792;9.154;2023-03-01T04:02:44;-1.30;99.90
25342;DHT22;13298;48.792;9.154;2023-03-01T04:05:12;-1.20;99.90
25342;DHT22;13298;48.792;9.154;2023-03-01T04:07:40;-1.20;99.90
25342;DHT22;13298;48.792;9.154;2023-03-01T04:10:11;-1.20;99.90
25342;DHT22;13298;48.792;9.154;2023-03-01T04:12:39;-1.20;99.90
25342;DHT22;13298;48.792;9.154;2023-03-01T04:15:06;-1.10;99.90
25342;DHT22;13298;48.792;9.154;2023-03-01T04:17:43;-1.10;99.90
25342;DHT22;13298;48.792;9.154;2023-03-01T04:20:11;-1.10;99.90
25342;DHT22;13298;48.792;9.154;2023-03-01T04:22:39;-1.10;99.90
25342;DHT22;13298;48.792;9.154;2023-03-01T04:25:06;-1.10;99.90
25342;DHT22;13298;48.792;9.154;2023-03-01T04:27:33;-1.00;99.90
25342;DHT22;13298;48.792;9.154;2023-03-01T04:29:59;-1.00;99.90
25342;DHT22;13298;48.792;9.154;2023-03-01T04:32:25;-1.00;99.90
25342;DHT22;13298;48.792;9.154;2023-03-01T04:34:51;-0.90;99.90
25342;DHT22;13298;48.792;9.154;2023-03-01T04:37:16;-0.90;99.90
25342;DHT22;13298;48.792;9.154;2023-03-01T04:39:42;-0.90;99.90
25342;DHT22;13298;48.792;9.154;2023-03-01T04:42:11;-0.80;99.90
25342;DHT22;13298;48.792;9.154;2023-03-01T04:44:37;-0.80;99.90
25342;DHT22;13298;48.792;9.154;2023-03-01T04:47:03;-0.80;99.90
25342;DHT22;13298;48.792;9.154;2023-03-01T04:49:29;-0.80;99.90
25342;DHT22;13298;48.792;9.154;2023-03-01T04:51:54;-0.80;99.90
25342;DHT22;13298;48.792;9.154;2023-03-01T04:54:21;-0.70;99.90
25342;DHT22;13298;48.792;9.154;2023-03-01T04:56:46;-0.70;99.90
25342;DHT22;13298;48.792;9.154;2023-03-01T04:59:12;-0.70;99.90
25342;DHT22;13298;48.792;9.154;2023-03-01T05:01:38;-0.70;99.90
25342;DHT22;13298;48.792;9.154;2023-03-01T05:04:04;-0.70;99.90
25342;DHT22;13298;48.792;9.154;2023-03-01T05:06:31;-0.70;99.90
25342;DHT22;13298;48.792;9.154;2023-03-01T05:08:58;-0.70;99.90
25342;DHT22;13298;48.792;9.154;2023-03-01T05:11:23;-0.70;99.90
25342;DHT22;13298;48.792;9.154;2023-03-01T05:13:49;-0.70;99.90
25342;DHT22;13298;48.792;9.154;2023-03-01T05:16:20;-0.70;99.90
25342;DHT22;13298;48.792;9.154;2023-03-01T05:18:45;-0.70;99.90
25342;DHT22;13298;48.792;9.154;2023-03-01T05:21:13;-0.70;99.90
25342;DHT22;13298;48.792;9.154;2023-03-01T05:23:41;-0.80;99.90
25342;DHT22;13298;48.792;9.154;2023-03-01T05:26:08;-0.70;99.90
25342;DHT22;13298;48.792;9.154;2023-03-01T05:28:34;-0.80;99.90
25342;DHT22;13298;48.792;9.154;2023-03-01T05:31:00;-0.70;99.90
25342;DHT22;13298;48.792;9.154;2023-03-01T05:33:26;-0.80;99.90
25342;DHT22;13298;48.792;9.154;2023-03-01T05:35:53;-0.80;99.90
25342;DHT22;13298;48.792;9.154;2023-03-01T05:38:19;-0.80;99.90
25342;DHT22;13298;48.792;9.154;2023-03-01T05:40:47;-0.80;99.90
25342;DHT22;13298;48.792;9.154;2023-03-01T05:43:15;-0.70;99.90
25342;DHT22;13298;48.792;9.154;2023-03-01T05:45:41;-0.70;99.90
25342;DHT22;13298;48.792;9.154;2023-03-01T05:48:08;-0.70;99.90
25342;DHT22;13298;48.792;9.154;2023-03-01T05:50:40;-0.70;99.90
25342;DHT22;13298;48.792;9.154;2023-03-01T05:53:13;-0.70;99.90
25342;DHT22;13298;48.792;9.154;2023-03-01T05:55:43;-0.70;99.90
25342;DHT22;13298;48.792;9.154;2023-03-01T05:58:11;-0.60;99.90
25342;DHT22;13298;48.792;9.154;2023-03-01T06:00:43;-0.70;99.90
25342;DHT22;13298;48.792;9.154;2023-03-01T06:03:13;-0.60;99.90
25342;DHT22;13298;48.792;9.154;2023-03-01T06:05:41;-0.60;99.90
25342;DHT22;13298;48.792;9.154;2023-03-01T06:08:09;-0.60;99.90
25342;DHT22;13298;48.792;9.154;2023-03-01T06:10:36;-0.60;99.90
25342;DHT22;13298;48.792;9.154;2023-03-01T06:13:02;-0.60;99.90
25342;DHT22;13298;48.792;9.154;2023-03-01T06:15:27;-0.50;99.90
25342;DHT22;13298;48.792;9.154;2023-03-01T06:17:54;-0.50;99.90
25342;DHT22;13298;48.792;9.154;2023-03-01T06:20:24;-0.50;99.90
25342;DHT22;13298;48.792;9.154;2023-03-01T06:22:50;-0.50;99.90
25342;DHT22;13298;48.792;9.154;2023-03-01T06:25:19;-0.50;99.90
25342;DHT22;13298;48.792;9.154;2023-03-01T06:27:47;-0.50;99.90
25342;DHT22;13298;48.792;9.154;2023-03-01T06:30:15;-0.50;99.90
25342;DHT22;13298;48.792;9.154;2023-03-01T06:32:42;-0.50;99.90
25342;DHT22;13298;48.792;9.154;2023-03-01T06:35:09;-0.50;99.90
25342;DHT22;13298;48.792;9.154;2023-03-01T06:37:36;-0.50;99.90
25342;DHT22;13298;48.792;9.154;2023-03-01T06:40:06;-0.50;99.90
25342;DHT22;13298;48.792;9.154;2023-03-01T06:42:34;-0.50;99.90
25342;DHT22;13298;48.792;9.154;2023-03-01T06:45:01;-0.40;99.90
25342;DHT22;13298;48.792;9.154;2023-03-01T06:47:26;-0.40;99.90
25342;DHT22;13298;48.792;9.154;2023-03-01T06:49:52;-0.40;99.90
25342;DHT22;13298;48.792;9.154;2023-03-01T06:52:18;-0.30;99.90
25342;DHT22;13298;48.792;9.154;2023-03-01T06:54:44;-0.10;99.90
25342;DHT22;13298;48.792;9.154;2023-03-01T06:57:09;-0.10;99.90
25342;DHT22;13298;48.792;9.154;2023-03-01T06:59:35;0.00;99.90
25342;DHT22;13298;48.792;9.154;2023-03-01T07:02:01;0.10;99.90
25342;DHT22;13298;48.792;9.154;2023-03-01T07:04:26;0.10;99.90
25342;DHT22;13298;48.792;9.154;2023-03-01T07:06:54;0.20;99.90
25342;DHT22;13298;48.792;9.154;2023-03-01T07:09:21;0.20;99.90
25342;DHT22;13298;48.792;9.154;2023-03-01T07:11:48;0.10;99.90
25342;DHT22;13298;48.792;9.154;2023-03-01T07:14:13;0.00;99.90
25342;DHT22;13298;48.792;9.154;2023-03-01T07:16:39;-0.10;99.90
25342;DHT22;13298;48.792;9.154;2023-03-01T07:19:05;-0.20;99.90
25342;DHT22;13298;48.792;9.154;2023-03-01T07:21:31;-0.30;99.90
25342;DHT22;13298;48.792;9.154;2023-03-01T07:23:57;-0.30;99.90
25342;DHT22;13298;48.792;9.154;2023-03-01T07:26:22;-0.30;99.90
25342;DHT22;13298;48.792;9.154;2023-03-01T07:28:48;-0.40;99.90
25342;DHT22;13298;48.792;9.154;2023-03-01T07:31:14;-0.40;99.90
25342;DHT22;13298;48.792;9.154;2023-03-01T07:33:39;-0.40;99.90
25342;DHT22;13298;48.792;9.154;2023-03-01T07:36:06;-0.30;99.90
25342;DHT22;13298;48.792;9.154;2023-03-01T07:38:32;-0.30;99.90
25342;DHT22;13298;48.792;9.154;2023-03-01T07:41:03;-0.20;99.90
25342;DHT22;13298;48.792;9.154;2023-03-01T07:43:29;-0.20;99.90
25342;DHT22;13298;48.792;9.154;2023-03-01T07:45:59;-0.30;99.90
25342;DHT22;13298;48.792;9.154;2023-03-01T07:48:25;-0.30;99.90
25342;DHT22;13298;48.792;9.154;2023-03-01T07:50:51;-0.20;99.90
25342;DHT22;13298;48.792;9.154;2023-03-01T07:53:17;-0.20;99.90
25342;DHT22;13298;48.792;9.154;2023-03-01T07:55:42;-0.20;99.90
25342;DHT22;13298;48.792;9.154;2023-03-01T07:58:08;-0.10;99.90
25342;DHT22;13298;48.792;9.154;2023-03-01T08:00:34;-0.10;99.90
25342;DHT22;13298;48.792;9.154;2023-03-01T08:03:00;-0.10;99.90
25342;DHT22;13298;48.792;9.154;2023-03-01T08:05:27;0.00;99.90
25342;DHT22;13298;48.792;9.154;2023-03-01T08:07:53;0.00;99.90
25342;DHT22;13298;48.792;9.154;2023-03-01T08:10:19;0.10;99.90
25342;DHT22;13298;48.792;9.154;2023-03-01T08:12:45;0.00;99.90
25342;DHT22;13298;48.792;9.154;2023-03-01T08:15:11;0.10;99.90
25342;DHT22;13298;48.792;9.154;2023-03-01T08:17:37;0.10;99.90
25342;DHT22;13298;48.792;9.154;2023-03-01T08:20:03;0.10;99.90
25342;DHT22;13298;48.792;9.154;2023-03-01T08:22:32;0.10;99.90
25342;DHT22;13298;48.792;9.154;2023-03-01T08:24:58;0.20;99.90
25342;DHT22;13298;48.792;9.154;2023-03-01T08:27:23;0.30;99.90
25342;DHT22;13298;48.792;9.154;2023-03-01T08:29:49;0.30;99.90
25342;DHT22;13298;48.792;9.154;2023-03-01T08:32:15;0.30;99.90
25342;DHT22;13298;48.792;9.154;2023-03-01T08:34:40;0.40;99.90
25342;DHT22;13298;48.792;9.154;2023-03-01T08:37:06;0.40;99.90
25342;DHT22;13298;48.792;9.154;2023-03-01T08:39:32;0.50;99.90
25342;DHT22;13298;48.792;9.154;2023-03-01T08:41:57;0.60;99.90
25342;DHT22;13298;48.792;9.154;2023-03-01T08:44:23;0.60;99.90
25342;DHT22;13298;48.792;9.154;2023-03-01T08:46:50;0.70;99.90
25342;DHT22;13298;48.792;9.154;2023-03-01T08:49:18;0.80;99.90
25342;DHT22;13298;48.792;9.154;2023-03-01T08:51:45;0.90;99.90
25342;DHT22;13298;48.792;9.154;2023-03-01T08:54:14;0.90;99.90
25342;DHT22;13298;48.792;9.154;2023-03-01T08:56:41;1.00;99.90
25342;DHT22;13298;48.792;9.154;2023-03-01T08:59:07;1.00;99.90
25342;DHT22;13298;48.792;9.154;2023-03-01T09:01:32;1.10;99.90
25342;DHT22;13298;48.792;9.154;2023-03-01T09:03:58;1.10;99.90
25342;DHT22;13298;48.792;9.154;2023-03-01T09:06:24;1.30;99.90
25342;DHT22;13298;48.792;9.154;2023-03-01T09:08:50;1.40;99.90
25342;DHT22;13298;48.792;9.154;2023-03-01T09:11:20;1.50;99.90
25342;DHT22;13298;48.792;9.154;2023-03-01T09:13:47;1.50;99.90
25342;DHT22;13298;48.792;9.154;2023-03-01T09:16:16;1.60;99.90
25342;DHT22;13298;48.792;9.154;2023-03-01T09:18:45;1.50;99.90
25342;DHT22;13298;48.792;9.154;2023-03-01T09:21:16;1.50;99.90
25342;DHT22;13298;48.792;9.154;2023-03-01T09:23:45;1.60;99.90
25342;DHT22;13298;48.792;9.154;2023-03-01T09:26:22;1.70;99.90
25342;DHT22;13298;48.792;9.154;2023-03-01T09:28:54;1.70;99.90
25342;DHT22;13298;48.792;9.154;2023-03-01T09:31:21;1.80;99.90
25342;DHT22;13298;48.792;9.154;2023-03-01T09:33:50;1.80;99.90
25342;DHT22;13298;48.792;9.154;2023-03-01T09:36:19;1.90;99.90
25342;DHT22;13298;48.792;9.154;2023-03-01T09:38:47;1.90;99.90
25342;DHT22;13298;48.792;9.154;2023-03-01T09:41:26;2.00;99.90
25342;DHT22;13298;48.792;9.154;2023-03-01T09:46:51;2.10;99.90
25342;DHT22;13298;48.792;9.154;2023-03-01T09:49:20;2.10;99.90
25342;DHT22;13298;48.792;9.154;2023-03-01T09:52:13;2.20;99.90
25342;DHT22;13298;48.792;9.154;2023-03-01T09:54:47;2.30;99.90
25342;DHT22;13298;48.792;9.154;2023-03-01T09:57:36;2.30;99.90
25342;DHT22;13298;48.792;9.154;2023-03-01T10:06:15;2.50;99.90
25342;DHT22;13298;48.792;9.154;2023-03-01T10:08:53;2.60;99.90
25342;DHT22;13298;48.792;9.154;2023-03-01T10:11:24;2.60;99.90
25342;DHT22;13298;48.792;9.154;2023-03-01T10:16:52;2.50;99.90
25342;DHT22;13298;48.792;9.154;2023-03-01T10:19:29;2.60;99.90
25342;DHT22;13298;48.792;9.154;2023-03-01T10:22:03;2.70;99.90
25342;DHT22;13298;48.792;9.154;2023-03-01T10:24:35;2.70;99.90
25342;DHT22;13298;48.792;9.154;2023-03-01T10:27:09;2.90;99.90
25342;DHT22;13298;48.792;9.154;2023-03-01T10:32:36;3.10;99.90
25342;DHT22;13298;48.792;9.154;2023-03-01T10:35:25;3.20;99.90
25342;DHT22;13298;48.792;9.154;2023-03-01T10:38:08;3.40;99.90
25342;DHT22;13298;48.792;9.154;2023-03-01T10:40:56;3.60;99.90
25342;DHT22;13298;48.792;9.154;2023-03-01T10:43:45;3.70;99.90
25342;DHT22;13298;48.792;9.154;2023-03-01T10:46:33;3.80;99.90
25342;DHT22;13298;48.792;9.154;2023-03-01T10:49:20;3.70;99.90
25342;DHT22;13298;48.792;9.154;2023-03-01T10:51:50;3.70;99.90
25342;DHT22;13298;48.792;9.154;2023-03-01T10:54:32;3.80;99.90
25342;DHT22;13298;48.792;9.154;2023-03-01T10:57:03;3.90;99.90
25342;DHT22;13298;48.792;9.154;2023-03-01T10:59:33;3.90;99.90
25342;DHT22;13298;48.792;9.154;2023-03-01T11:02:30;4.00;99.90
25342;DHT22;13298;48.792;9.154;2023-03-01T11:10:24;4.10;99.90
25342;DHT22;13298;48.792;9.154;2023-03-01T11:13:16;4.20;99.90
25342;DHT22;13298;48.792;9.154;2023-03-01T11:16:02;4.30;99.90
25342;DHT22;13298;48.792;9.154;2023-03-01T11:18:31;4.20;99.90
25342;DHT22;13298;48.792;9.154;2023-03-01T11:20:58;4.30;99.90
25342;DHT22;13298;48.792;9.154;2023-03-01T11:23:25;4.30;99.90
25342;DHT22;13298;48.792;9.154;2023-03-01T11:26:02;4.20;99.90
25342;DHT22;13298;48.792;9.154;2023-03-01T11:28:30;4.30;99.90
25342;DHT22;13298;48.792;9.154;2023-03-01T11:31:09;4.40;99.90
25342;DHT22;13298;48.792;9.154;2023-03-01T11:33:54;4.40;99.90
25342;DHT22;13298;48.792;9.154;2023-03-01T11:36:39;4.40;99.90
25342;DHT22;13298;48.792;9.154;2023-03-01T11:39:39;4.50;99.90
25342;DHT22;13298;48.792;9.154;2023-03-01T11:42:19;4.50;99.90
25342;DHT22;13298;48.792;9.154;2023-03-01T11:44:53;4.50;99.90
25342;DHT22;13298;48.792;9.154;2023-03-01T11:50:42;4.50;99.90
25342;DHT22;13298;48.792;9.154;2023-03-01T12:02:22;4.80;99.90
25342;DHT22;13298;48.792;9.154;2023-03-01T12:10:48;5.00;99.90
25342;DHT22;13298;48.792;9.154;2023-03-01T12:19:45;5.20;99.90
25342;DHT22;13298;48.792;9.154;2023-03-01T12:26:01;5.30;99.90
25342;DHT22;13298;48.792;9.154;2023-03-01T12:28:50;5.40;99.90
25342;DHT22;13298;48.792;9.154;2023-03-01T12:32:10;5.40;99.90
25342;DHT22;13298;48.792;9.154;2023-03-01T12:34:55;5.40;99.90
25342;DHT22;13298;48.792;9.154;2023-03-01T12:37:25;5.40;99.90
25342;DHT22;13298;48.792;9.154;2023-03-01T12:46:33;5.60;99.90
25342;DHT22;13298;48.792;9.154;2023-03-01T12:54:39;5.90;99.90
25342;DHT22;13298;48.792;9.154;2023-03-01T12:57:28;5.90;99.90
25342;DHT22;13298;48.792;9.154;2023-03-01T13:09:06;6.10;99.90
25342;DHT22;13298;48.792;9.154;2023-03-01T13:11:41;6.20;99.90
25342;DHT22;13298;48.792;9.154;2023-03-01T13:16:47;6.20;99.90
25342;DHT22;13298;48.792;9.154;2023-03-01T13:19:21;6.20;99.90
25342;DHT22;13298;48.792;9.154;2023-03-01T13:21:52;6.20;99.90
25342;DHT22;13298;48.792;9.154;2023-03-01T13:24:32;6.30;99.90
25342;DHT22;13298;48.792;9.154;2023-03-01T13:29:44;6.40;99.90
25342;DHT22;13298;48.792;9.154;2023-03-01T13:32:32;6.40;99.90
25342;DHT22;13298;48.792;9.154;2023-03-01T13:37:40;6.40;99.90
25342;DHT22;13298;48.792;9.154;2023-03-01T13:42:48;6.40;99.90
25342;DHT22;13298;48.792;9.154;2023-03-01T13:47:58;6.60;99.90
25342;DHT22;13298;48.792;9.154;2023-03-01T13:50:29;6.60;99.90
25342;DHT22;13298;48.792;9.154;2023-03-01T13:53:00;6.60;99.90
25342;DHT22;13298;48.792;9.154;2023-03-01T13:55:41;6.50;99.90
25342;DHT22;13298;48.792;9.154;2023-03-01T13:58:28;6.50;99.90
25342;DHT22;13298;48.792;9.154;2023-03-01T14:01:05;6.40;99.90
25342;DHT22;13298;48.792;9.154;2023-03-01T14:03:39;6.40;99.90
25342;DHT22;13298;48.792;9.154;2023-03-01T14:06:35;6.40;99.90
25342;DHT22;13298;48.792;9.154;2023-03-01T14:09:17;6.30;99.90
25342;DHT22;13298;48.792;9.154;2023-03-01T14:12:06;6.40;99.90
25342;DHT22;13298;48.792;9.154;2023-03-01T14:14:59;6.40;99.90
25342;DHT22;13298;48.792;9.154;2023-03-01T14:20:41;6.40;99.90
25342;DHT22;13298;48.792;9.154;2023-03-01T14:23:12;6.40;99.90
25342;DHT22;13298;48.792;9.154;2023-03-01T14:25:50;6.40;99.90
25342;DHT22;13298;48.792;9.154;2023-03-01T14:31:00;6.40;99.90
25342;DHT22;13298;48.792;9.154;2023-03-01T14:33:36;6.40;99.90
25342;DHT22;13298;48.792;9.154;2023-03-01T14:36:03;6.40;99.90
25342;DHT22;13298;48.792;9.154;2023-03-01T14:38:35;6.40;99.90
25342;DHT22;13298;48.792;9.154;2023-03-01T14:41:09;6.40;99.90
25342;DHT22;13298;48.792;9.154;2023-03-01T14:43:38;6.30;99.90
25342;DHT22;13298;48.792;9.154;2023-03-01T14:46:20;6.30;99.90
25342;DHT22;13298;48.792;9.154;2023-03-01T14:48:54;6.30;99.90
25342;DHT22;13298;48.792;9.154;2023-03-01T14:51:22;6.30;99.90
25342;DHT22;13298;48.792;9.154;2023-03-01T14:53:48;6.30;99.90
25342;DHT22;13298;48.792;9.154;2023-03-01T14:56:16;6.30;99.90
25342;DHT22;13298;48.792;9.154;2023-03-01T14:58:46;6.30;99.90
25342;DHT22;13298;48.792;9.154;2023-03-01T15:01:17;6.20;99.90
25342;DHT22;13298;48.792;9.154;2023-03-01T15:03:45;6.20;99.90
25342;DHT22;13298;48.792;9.154;2023-03-01T15:06:17;6.20;99.90
25342;DHT22;13298;48.792;9.154;2023-03-01T15:08:50;6.30;99.90
25342;DHT22;13298;48.792;9.154;2023-03-01T15:11:27;6.30;99.90
25342;DHT22;13298;48.792;9.154;2023-03-01T15:13:57;6.30;99.90
25342;DHT22;13298;48.792;9.154;2023-03-01T15:21:25;6.20;99.90
25342;DHT22;13298;48.792;9.154;2023-03-01T15:26:41;6.20;99.90
25342;DHT22;13298;48.792;9.154;2023-03-01T15:29:18;6.20;99.90
25342;DHT22;13298;48.792;9.154;2023-03-01T15:32:04;6.10;99.90
25342;DHT22;13298;48.792;9.154;2023-03-01T15:34:36;6.10;99.90
25342;DHT22;13298;48.792;9.154;2023-03-01T15:37:04;6.10;99.90
25342;DHT22;13298;48.792;9.154;2023-03-01T15:39:42;6.10;99.90
25342;DHT22;13298;48.792;9.154;2023-03-01T15:45:11;6.00;99.90
25342;DHT22;13298;48.792;9.154;2023-03-01T15:47:48;6.00;99.90
25342;DHT22;13298;48.792;9.154;2023-03-01T15:50:21;5.90;99.90
25342;DHT22;13298;48.792;9.154;2023-03-01T15:52:49;5.90;99.90
25342;DHT22;13298;48.792;9.154;2023-03-01T15:55:21;5.80;99.90
25342;DHT22;13298;48.792;9.154;2023-03-01T15:57:49;5.80;99.90
25342;DHT22;13298;48.792;9.154;2023-03-01T16:00:16;5.80;99.90
25342;DHT22;13298;48.792;9.154;2023-03-01T16:02:43;5.70;99.90
25342;DHT22;13298;48.792;9.154;2023-03-01T16:05:31;5.70;99.90
25342;DHT22;13298;48.792;9.154;2023-03-01T16:07:57;5.70;99.90
25342;DHT22;13298;48.792;9.154;2023-03-01T16:10:24;5.80;99.90
25342;DHT22;13298;48.792;9.154;2023-03-01T16:12:50;5.70;99.90
25342;DHT22;13298;48.792;9.154;2023-03-01T16:15:23;5.70;99.90
25342;DHT22;13298;48.792;9.154;2023-03-01T16:17:56;5.70;99.90
25342;DHT22;13298;48.792;9.154;2023-03-01T16:20:23;5.70;99.90
25342;DHT22;13298;48.792;9.154;2023-03-01T16:22:50;5.60;99.90
25342;DHT22;13298;48.792;9.154;2023-03-01T16:25:17;5.70;99.90
25342;DHT22;13298;48.792;9.154;2023-03-01T16:27:49;5.60;99.90
25342;DHT22;13298;48.792;9.154;2023-03-01T16:30:19;5.60;99.90
25342;DHT22;13298;48.792;9.154;2023-03-01T16:32:47;5.50;99.90
25342;DHT22;13298;48.792;9.154;2023-03-01T16:35:16;5.50;99.90
25342;DHT22;13298;48.792;9.154;2023-03-01T16:37:43;5.50;99.90
25342;DHT22;13298;48.792;9.154;2023-03-01T16:40:30;5.40;99.90
25342;DHT22;13298;48.792;9.154;2023-03-01T16:42:56;5.30;99.90
25342;DHT22;13298;48.792;9.154;2023-03-01T16:45:26;5.20;99.90
25342;DHT22;13298;48.792;9.154;2023-03-01T16:48:01;5.10;99.90
25342;DHT22;13298;48.792;9.154;2023-03-01T16:50:28;5.00;99.90
25342;DHT22;13298;48.792;9.154;2023-03-01T16:52:53;4.90;99.90
25342;DHT22;13298;48.792;9.154;2023-03-01T16:55:19;4.80;99.90
25342;DHT22;13298;48.792;9.154;2023-03-01T16:57:45;4.70;99.90
25342;DHT22;13298;48.792;9.154;2023-03-01T17:00:12;4.60;99.90
25342;DHT22;13298;48.792;9.154;2023-03-01T17:02:39;4.50;99.90
25342;DHT22;13298;48.792;9.154;2023-03-01T17:05:06;4.50;99.90
25342;DHT22;13298;48.792;9.154;2023-03-01T17:07:33;4.40;99.90
25342;DHT22;13298;48.792;9.154;2023-03-01T17:10:04;4.40;99.90
25342;DHT22;13298;48.792;9.154;2023-03-01T17:12:33;4.30;99.90
25342;DHT22;13298;48.792;9.154;2023-03-01T17:14:59;4.20;99.90
25342;DHT22;13298;48.792;9.154;2023-03-01T17:17:26;4.20;99.90
25342;DHT22;13298;48.792;9.154;2023-03-01T17:19:52;4.10;99.90
25342;DHT22;13298;48.792;9.154;2023-03-01T17:22:18;4.00;99.90
25342;DHT22;13298;48.792;9.154;2023-03-01T17:24:44;4.00;99.90
25342;DHT22;13298;48.792;9.154;2023-03-01T17:27:11;4.00;99.90
25342;DHT22;13298;48.792;9.154;2023-03-01T17:29:38;4.00;99.90
25342;DHT22;13298;48.792;9.154;2023-03-01T17:32:06;4.00;99.90
25342;DHT22;13298;48.792;9.154;2023-03-01T17:34:32;4.00;99.90
25342;DHT22;13298;48.792;9.154;2023-03-01T17:36:58;4.00;99.90
25342;DHT22;13298;48.792;9.154;2023-03-01T17:39:25;3.90;99.90
25342;DHT22;13298;48.792;9.154;2023-03-01T17:41:55;3.90;99.90
25342;DHT22;13298;48.792;9.154;2023-03-01T17:44:21;3.80;99.90